Time;durP1;ratioP1;P1;durP2;ratioP2;P2;SDS_P1;SDS_P2;PMS_P1;PMS_P2;Temp;Humidity;BMP_temperature;BMP_pressure;BME280_temperature;BME280_humidity;BME280_pressure;Samples;Min_cycle;Max_cycle;Signal;HPM_P1;HPM_P2
2023/01/13 00:00:01;;;;;;;0.90;0.40;;;11.50;99.90;;;;;;5116135;28;20457;-61
2023/01/13 00:02:27;;;;;;;0.53;0.47;;;11.50;99.90;;;;;;5115963;28;20474;-61
2023/01/13 00:04:54;;;;;;;0.67;0.67;;;11.50;99.90;;;;;;5116202;28;20450;-61
2023/01/13 00:07:21;;;;;;;1.20;0.47;;;11.50;99.90;;;;;;5115624;28;20958;-61
2023/01/13 00:09:48;;;;;;;2.30;0.93;;;11.50;99.90;;;;;;5116203;28;20477;-61
2023/01/13 00:12:16;;;;;;;0.43;0.43;;;11.50;99.90;;;;;;5115748;28;20466;-61
2023/01/13 00:14:43;;;;;;;1.23;0.50;;;11.50;99.90;;;;;;5115925;28;20451;-61
2023/01/13 00:17:09;;;;;;;0.40;0.37;;;11.50;99.90;;;;;;5115756;28;20436;-61
2023/01/13 00:19:36;;;;;;;1.13;0.40;;;11.40;99.90;;;;;;5115730;28;20461;-61
2023/01/13 00:22:03;;;;;;;1.33;0.50;;;11.40;99.90;;;;;;5115180;28;20984;-61
2023/01/13 00:24:29;;;;;;;0.63;0.47;;;11.40;99.90;;;;;;5115506;28;20458;-60
2023/01/13 00:26:56;;;;;;;1.13;0.60;;;11.40;99.90;;;;;;5115577;28;20524;-61
2023/01/13 00:29:24;;;;;;;1.07;0.40;;;11.30;99.90;;;;;;5115051;28;20973;-61
2023/01/13 00:31:52;;;;;;;1.70;0.70;;;11.30;99.90;;;;;;5115131;28;20990;-60
2023/01/13 00:34:19;;;;;;;1.80;0.80;;;11.30;99.90;;;;;;5115445;28;20442;-61
2023/01/13 00:36:45;;;;;;;1.13;0.70;;;11.30;99.90;;;;;;5115353;28;20450;-61
2023/01/13 00:39:12;;;;;;;1.63;0.50;;;11.30;99.90;;;;;;5114860;28;20957;-61
2023/01/13 00:44:24;;;;;;;1.70;0.47;;;11.30;99.90;;;;;;5114939;28;20488;-61
2023/01/13 00:46:51;;;;;;;2.93;0.53;;;11.30;99.90;;;;;;5115140;28;20453;-61
2023/01/13 00:49:17;;;;;;;1.43;0.57;;;11.30;99.90;;;;;;5114719;28;20991;-61
2023/01/13 00:51:44;;;;;;;0.90;0.50;;;11.20;99.90;;;;;;5115133;28;20472;-61
2023/01/13 00:54:11;;;;;;;1.13;0.50;;;11.20;99.90;;;;;;5115179;28;20445;-61
2023/01/13 00:56:38;;;;;;;1.43;0.30;;;11.20;99.90;;;;;;5114925;28;20459;-61
2023/01/13 00:59:04;;;;;;;0.60;0.40;;;11.20;99.90;;;;;;5114575;28;20442;-61
2023/01/13 01:01:32;;;;;;;3.63;0.70;;;11.30;99.90;;;;;;5113787;28;20477;-61
2023/01/13 01:03:59;;;;;;;1.90;0.50;;;11.30;99.90;;;;;;5114842;28;20443;-61
2023/01/13 01:06:27;;;;;;;1.70;0.60;;;11.30;99.90;;;;;;5114893;28;20446;-60
2023/01/13 01:08:55;;;;;;;2.00;0.70;;;11.30;99.90;;;;;;5114703;28;20467;-60
2023/01/13 01:11:24;;;;;;;1.57;0.70;;;11.30;99.90;;;;;;5114305;28;20946;-61
2023/01/13 01:13:52;;;;;;;4.30;0.73;;;11.30;99.90;;;;;;5114589;28;20451;-60
2023/01/13 01:16:21;;;;;;;3.33;0.90;;;11.30;99.90;;;;;;5114511;28;20817;-61
2023/01/13 01:18:50;;;;;;;2.00;0.87;;;11.20;99.90;;;;;;5114575;28;20447;-61
2023/01/13 01:21:18;;;;;;;3.53;0.60;;;11.20;99.90;;;;;;5114307;27;20493;-61
2023/01/13 01:23:45;;;;;;;3.80;0.93;;;11.20;99.90;;;;;;5114604;28;20446;-61
2023/01/13 01:26:15;;;;;;;2.43;0.80;;;11.10;99.90;;;;;;5114635;28;20854;-61
2023/01/13 01:28:42;;;;;;;3.77;0.80;;;11.20;99.90;;;;;;5115003;28;20442;-61
2023/01/13 01:31:10;;;;;;;2.73;0.70;;;11.20;99.90;;;;;;5114476;28;20489;-62
2023/01/13 01:33:37;;;;;;;4.23;0.83;;;11.10;99.40;;;;;;5114860;28;20466;-61
2023/01/13 01:36:06;;;;;;;1.80;0.70;;;11.10;98.30;;;;;;5114628;28;20450;-61
2023/01/13 01:38:32;;;;;;;1.00;0.50;;;11.10;99.70;;;;;;5114525;28;20465;-61
2023/01/13 01:40:59;;;;;;;5.03;0.70;;;11.10;98.10;;;;;;5114323;28;20475;-61
2023/01/13 01:43:58;;;;;;;2.00;0.50;;;11.00;96.20;;;;;;5114273;28;20474;-61
2023/01/13 01:46:26;;;;;;;4.27;0.80;;;11.00;95.40;;;;;;5114320;28;20420;-61
2023/01/13 01:48:58;;;;;;;8.83;1.10;;;10.90;95.10;;;;;;5114579;28;20463;-61
2023/01/13 01:51:28;;;;;;;1.37;0.77;;;10.90;95.00;;;;;;5114548;28;20429;-61
2023/01/13 01:53:56;;;;;;;4.17;0.73;;;10.80;94.90;;;;;;5114709;28;20432;-61
2023/01/13 01:56:23;;;;;;;2.20;0.70;;;10.80;95.20;;;;;;5114223;28;20451;-61
2023/01/13 01:58:52;;;;;;;1.60;0.60;;;10.70;95.20;;;;;;5113965;28;20446;-61
2023/01/13 02:01:18;;;;;;;2.87;0.87;;;10.70;95.20;;;;;;5114205;28;20443;-61
2023/01/13 02:03:54;;;;;;;2.97;0.87;;;10.60;94.30;;;;;;5114325;28;20458;-61
2023/01/13 02:06:21;;;;;;;2.33;0.60;;;10.50;93.40;;;;;;5114443;28;20438;-61
2023/01/13 02:08:49;;;;;;;2.97;0.60;;;10.50;93.10;;;;;;5113590;28;20818;-61
2023/01/13 02:14:15;;;;;;;2.90;0.80;;;10.40;93.10;;;;;;5118110;28;20778;-61
2023/01/13 02:16:48;;;;;;;1.73;0.60;;;10.40;93.30;;;;;;5118427;28;20466;-61
2023/01/13 02:19:29;;;;;;;2.43;0.60;;;10.30;93.30;;;;;;5118733;28;20452;-60
2023/01/13 02:22:19;;;;;;;2.20;0.50;;;10.30;93.50;;;;;;5118184;28;20491;-61
2023/01/13 02:25:09;;;;;;;8.20;1.10;;;10.30;93.60;;;;;;5118731;28;20434;-60
2023/01/13 02:28:00;;;;;;;5.30;0.90;;;10.30;93.40;;;;;;5118475;28;20541;-61
2023/01/13 02:33:39;;;;;;;3.33;1.23;;;10.20;94.00;;;;;;5118216;28;20469;-61
2023/01/13 02:36:13;;;;;;;1.77;1.00;;;10.20;94.40;;;;;;5118276;28;20431;-61
2023/01/13 02:38:49;;;;;;;9.10;1.63;;;10.10;94.20;;;;;;5117924;28;20878;-61
2023/01/13 02:44:10;;;;;;;4.80;0.70;;;10.10;94.30;;;;;;5117959;28;20468;-61
2023/01/13 02:46:50;;;;;;;7.73;1.43;;;10.10;94.60;;;;;;5117838;28;20449;-60
2023/01/13 02:49:25;;;;;;;3.30;1.00;;;10.10;94.70;;;;;;5117605;28;20485;-61
2023/01/13 02:51:54;;;;;;;3.60;1.07;;;10.00;94.90;;;;;;5117444;28;20826;-61
2023/01/13 02:54:26;;;;;;;4.57;1.27;;;10.10;95.70;;;;;;5118692;28;20787;-61
2023/01/13 02:56:55;;;;;;;2.67;0.90;;;10.10;95.60;;;;;;5117490;28;20426;-61
2023/01/13 02:59:25;;;;;;;5.70;1.43;;;10.10;95.50;;;;;;5117864;28;20452;-61
2023/01/13 03:01:55;;;;;;;3.33;1.80;;;10.10;95.60;;;;;;5117667;28;20528;-61
2023/01/13 03:04:46;;;;;;;2.13;0.83;;;10.10;95.50;;;;;;5117531;28;20439;-61
2023/01/13 03:07:28;;;;;;;4.00;0.90;;;10.00;95.50;;;;;;5117480;28;20465;-60
2023/01/13 03:10:01;;;;;;;4.97;1.03;;;10.10;95.70;;;;;;5117133;28;20462;-61
2023/01/13 03:12:37;;;;;;;6.23;1.33;;;10.10;95.60;;;;;;5117030;28;20470;-61
2023/01/13 03:15:13;;;;;;;4.87;1.00;;;10.10;95.60;;;;;;5117497;28;20436;-61
2023/01/13 03:17:45;;;;;;;6.57;1.37;;;10.10;95.80;;;;;;5117181;28;20432;-61
2023/01/13 03:20:18;;;;;;;3.77;1.10;;;10.10;95.70;;;;;;5117187;28;20435;-61
2023/01/13 03:22:55;;;;;;;4.47;1.50;;;10.00;95.80;;;;;;5116778;28;20469;-61
2023/01/13 03:25:26;;;;;;;5.53;1.20;;;9.90;96.90;;;;;;5115804;28;20457;-61
2023/01/13 03:27:57;;;;;;;5.07;1.27;;;9.80;96.90;;;;;;5117021;28;20427;-61
2023/01/13 03:30:31;;;;;;;6.70;1.63;;;9.80;96.90;;;;;;5116795;28;20520;-61
2023/01/13 03:33:04;;;;;;;7.07;1.90;;;9.80;97.20;;;;;;5116843;28;20833;-61
2023/01/13 03:35:36;;;;;;;7.80;1.60;;;9.80;97.20;;;;;;5116912;28;20449;-61
2023/01/13 03:38:06;;;;;;;6.97;1.30;;;9.80;97.30;;;;;;5116938;28;20442;-61
2023/01/13 03:40:36;;;;;;;7.00;1.53;;;9.70;97.50;;;;;;5116527;28;20455;-60
2023/01/13 03:45:58;;;;;;;5.37;1.27;;;9.80;97.80;;;;;;5117031;28;20489;-60
2023/01/13 03:48:28;;;;;;;7.73;1.33;;;9.70;97.60;;;;;;5116818;28;20438;-61
2023/01/13 03:51:02;;;;;;;7.60;1.57;;;9.70;97.70;;;;;;5116543;28;20471;-60
2023/01/13 03:53:32;;;;;;;9.00;1.47;;;9.70;97.60;;;;;;5116313;28;20604;-60
2023/01/13 03:56:02;;;;;;;9.50;1.40;;;9.70;97.50;;;;;;5116644;28;20440;-60
2023/01/13 03:58:32;;;;;;;7.93;2.83;;;9.70;97.50;;;;;;5116609;28;20438;-60
2023/01/13 04:01:02;;;;;;;13.40;2.13;;;9.70;97.70;;;;;;5116722;28;20440;-60
2023/01/13 04:03:37;;;;;;;6.90;1.20;;;9.60;97.70;;;;;;5116637;28;20486;-60
2023/01/13 04:06:13;;;;;;;6.50;1.70;;;9.60;97.70;;;;;;5116393;28;20440;-60
2023/01/13 04:08:44;;;;;;;8.60;1.80;;;9.60;97.80;;;;;;5116389;28;20429;-59
2023/01/13 04:11:18;;;;;;;9.27;1.73;;;9.60;98.10;;;;;;5115912;28;20497;-60
2023/01/13 04:13:48;;;;;;;7.93;1.70;;;9.60;98.20;;;;;;5115959;28;20443;-60
2023/01/13 04:16:15;;;;;;;11.27;1.80;;;9.60;98.30;;;;;;5116389;28;20454;-60
2023/01/13 04:18:43;;;;;;;8.47;1.60;;;9.60;98.20;;;;;;5116178;28;20431;-60
2023/01/13 04:21:10;;;;;;;6.20;1.40;;;9.60;98.20;;;;;;5115634;27;20564;-60
2023/01/13 04:23:37;;;;;;;4.33;1.80;;;9.60;98.40;;;;;;5115918;28;20446;-60
2023/01/13 04:26:04;;;;;;;10.10;2.00;;;9.60;98.40;;;;;;5115950;28;20817;-60
2023/01/13 04:28:32;;;;;;;6.30;1.53;;;9.60;98.70;;;;;;5115921;28;20458;-60
2023/01/13 04:30:58;;;;;;;4.67;1.57;;;9.60;98.30;;;;;;5115758;28;20577;-60
2023/01/13 04:33:25;;;;;;;7.57;1.80;;;9.70;98.60;;;;;;5115784;28;20480;-60
2023/01/13 04:35:54;;;;;;;11.47;2.80;;;9.70;98.40;;;;;;5115682;28;20458;-60
2023/01/13 04:38:21;;;;;;;13.70;2.40;;;9.70;98.40;;;;;;5116504;28;20498;-60
2023/01/13 04:40:48;;;;;;;8.23;1.83;;;9.70;98.40;;;;;;5116832;28;20468;-60
2023/01/13 04:43:15;;;;;;;18.23;2.40;;;9.70;98.50;;;;;;5118128;28;20474;-60
2023/01/13 04:45:42;;;;;;;10.87;1.70;;;9.70;98.30;;;;;;5116004;28;20450;-60
2023/01/13 04:48:09;;;;;;;7.63;1.60;;;9.60;98.40;;;;;;5115569;28;20437;-60
2023/01/13 04:50:36;;;;;;;5.17;1.53;;;9.70;98.50;;;;;;5115563;28;21012;-59
2023/01/13 04:53:04;;;;;;;15.13;2.77;;;9.70;98.30;;;;;;5115537;28;20922;-60
2023/01/13 04:55:31;;;;;;;12.10;1.87;;;9.70;98.30;;;;;;5115387;28;20452;-60
2023/01/13 04:58:03;;;;;;;9.20;1.70;;;9.60;98.30;;;;;;5114697;28;20949;-59
2023/01/13 05:00:30;;;;;;;9.83;2.10;;;9.60;98.40;;;;;;5114794;28;20845;-59
2023/01/13 05:02:58;;;;;;;10.43;3.10;;;9.60;98.40;;;;;;5115211;28;20484;-59
2023/01/13 05:05:25;;;;;;;10.87;2.30;;;9.50;98.40;;;;;;5115714;28;20508;-59
2023/01/13 05:07:52;;;;;;;9.60;2.03;;;9.50;98.50;;;;;;5115051;28;20450;-60
2023/01/13 05:10:20;;;;;;;10.80;2.10;;;9.40;98.60;;;;;;5114553;28;20907;-60
2023/01/13 05:18:16;;;;;;;14.63;2.90;;;9.30;98.80;;;;;;5115043;28;20517;-60
2023/01/13 05:20:43;;;;;;;12.30;2.90;;;9.40;99.10;;;;;;5114604;28;20449;-60
2023/01/13 05:25:55;;;;;;;6.93;2.40;;;9.40;99.00;;;;;;5115039;28;20790;-60
2023/01/13 05:28:22;;;;;;;9.40;2.83;;;9.30;99.10;;;;;;5114569;28;20454;-60
2023/01/13 05:30:49;;;;;;;14.80;2.37;;;9.30;98.80;;;;;;5114368;28;21015;-59
2023/01/13 05:33:19;;;;;;;13.50;3.20;;;9.30;98.80;;;;;;5114786;28;20477;-60
2023/01/13 05:35:47;;;;;;;11.23;2.00;;;9.30;98.80;;;;;;5114585;28;20434;-60
2023/01/13 05:38:14;;;;;;;8.37;2.13;;;9.30;98.70;;;;;;5114703;28;20446;-60
2023/01/13 05:43:27;;;;;;;12.03;2.77;;;9.30;98.40;;;;;;5114154;28;20443;-59
2023/01/13 05:45:57;;;;;;;5.63;1.50;;;9.20;98.30;;;;;;5114407;28;20421;-60
2023/01/13 05:48:26;;;;;;;6.50;1.40;;;9.20;98.40;;;;;;5113807;28;20467;-60
2023/01/13 05:50:53;;;;;;;7.30;1.83;;;9.30;98.40;;;;;;5114189;28;20494;-60
2023/01/13 05:53:21;;;;;;;7.93;1.87;;;9.30;98.00;;;;;;5114088;28;20885;-60
2023/01/13 05:55:49;;;;;;;20.90;1.90;;;9.20;97.90;;;;;;5114117;28;20446;-60
2023/01/13 05:58:18;;;;;;;6.23;1.37;;;9.30;97.90;;;;;;5114244;28;20912;-59
2023/01/13 06:00:46;;;;;;;9.70;1.83;;;9.20;97.80;;;;;;5113865;28;20845;-59
2023/01/13 06:03:14;;;;;;;11.10;2.07;;;9.20;97.80;;;;;;5114430;28;20526;-60
2023/01/13 06:05:41;;;;;;;6.80;1.57;;;9.20;97.80;;;;;;5114237;28;20484;-59
2023/01/13 06:08:09;;;;;;;5.70;1.70;;;9.30;97.90;;;;;;5114623;28;20887;-59
2023/01/13 06:10:36;;;;;;;9.10;2.07;;;9.30;97.90;;;;;;5115037;28;20469;-59
2023/01/13 06:13:03;;;;;;;7.00;1.73;;;9.30;98.20;;;;;;5114056;28;21000;-59
2023/01/13 06:15:30;;;;;;;8.50;1.50;;;9.30;98.00;;;;;;5114635;28;20449;-60
2023/01/13 06:17:59;;;;;;;7.63;1.77;;;9.30;98.30;;;;;;5113942;28;21006;-60
2023/01/13 06:20:25;;;;;;;4.40;1.40;;;9.30;98.30;;;;;;5114436;28;20450;-60
2023/01/13 06:22:54;;;;;;;9.83;1.60;;;9.30;98.30;;;;;;5114418;28;20468;-60
2023/01/13 06:25:29;;;;;;;5.40;1.97;;;9.30;98.50;;;;;;5114869;28;20507;-60
2023/01/13 06:27:58;;;;;;;4.83;1.30;;;9.30;98.40;;;;;;5114457;28;20438;-60
2023/01/13 06:30:26;;;;;;;8.53;1.87;;;9.30;98.40;;;;;;5113699;28;20446;-60
2023/01/13 06:32:55;;;;;;;7.20;1.70;;;9.30;98.60;;;;;;5113984;28;20474;-60
2023/01/13 06:35:28;;;;;;;5.23;1.40;;;9.30;98.70;;;;;;5114129;28;20526;-60
2023/01/13 06:37:58;;;;;;;6.53;2.60;;;9.30;98.80;;;;;;5114087;28;20445;-60
2023/01/13 06:40:25;;;;;;;5.50;1.40;;;9.20;98.80;;;;;;5113853;28;20458;-61
2023/01/13 06:45:38;;;;;;;5.73;2.43;;;9.20;98.70;;;;;;5127075;28;20511;-60
2023/01/13 06:48:06;;;;;;;9.40;2.77;;;9.20;98.50;;;;;;5134736;28;20429;-60
2023/01/13 06:50:34;;;;;;;6.17;1.00;;;9.20;98.30;;;;;;5134948;28;20448;-60
2023/01/13 06:53:00;;;;;;;5.73;1.60;;;9.30;97.90;;;;;;5134483;28;21022;-60
2023/01/13 06:55:27;;;;;;;9.07;1.70;;;9.30;97.70;;;;;;5134746;28;20453;-60
2023/01/13 06:57:56;;;;;;;9.20;1.40;;;9.20;97.50;;;;;;5134864;28;20456;-61
2023/01/13 07:00:24;;;;;;;5.47;1.70;;;9.20;97.00;;;;;;5138774;27;20510;-60
2023/01/13 07:02:51;;;;;;;7.97;1.80;;;9.20;97.00;;;;;;5138410;27;20476;-61
2023/01/13 07:05:19;;;;;;;7.23;2.37;;;9.30;97.10;;;;;;5138466;27;20472;-60
2023/01/13 07:07:47;;;;;;;4.67;1.53;;;9.20;96.70;;;;;;5138171;27;20951;-60
2023/01/13 07:10:20;;;;;;;6.83;1.40;;;9.20;96.90;;;;;;5138380;27;20430;-60
2023/01/13 07:15:33;;;;;;;5.83;1.40;;;9.20;96.40;;;;;;5137909;27;20412;-60
2023/01/13 07:18:00;;;;;;;6.10;1.40;;;9.20;96.50;;;;;;5138173;27;20430;-60
2023/01/13 07:20:27;;;;;;;8.13;1.90;;;9.10;97.00;;;;;;5117000;27;20506;-60
2023/01/13 07:22:56;;;;;;;9.33;1.50;;;9.20;96.70;;;;;;5116984;28;20466;-60
2023/01/13 07:25:23;;;;;;;8.60;1.63;;;9.10;96.90;;;;;;5116860;28;20804;-60
2023/01/13 07:27:50;;;;;;;9.30;1.57;;;9.10;97.00;;;;;;5117023;28;20488;-60
2023/01/13 07:30:17;;;;;;;4.63;1.50;;;9.10;97.40;;;;;;5116952;28;20449;-60
2023/01/13 07:32:44;;;;;;;6.30;2.13;;;9.00;97.20;;;;;;5116701;28;21006;-60
2023/01/13 07:35:10;;;;;;;5.73;1.87;;;9.00;97.50;;;;;;5117001;28;20474;-60
2023/01/13 07:37:38;;;;;;;10.07;1.40;;;9.00;98.10;;;;;;5117333;28;20430;-60
2023/01/13 07:40:08;;;;;;;6.30;1.77;;;9.00;97.70;;;;;;5116647;28;20518;-60
2023/01/13 07:45:22;;;;;;;1.80;1.03;;;8.90;98.00;;;;;;5116890;28;20769;-60
2023/01/13 07:47:52;;;;;;;3.07;1.23;;;8.90;98.30;;;;;;5116808;28;20437;-60
2023/01/13 07:50:19;;;;;;;5.50;1.23;;;8.90;98.30;;;;;;5116703;28;20453;-60
2023/01/13 07:52:46;;;;;;;4.70;1.30;;;8.90;98.50;;;;;;5116868;28;20889;-60
2023/01/13 07:55:14;;;;;;;2.30;1.50;;;8.90;98.60;;;;;;5116842;28;20863;-60
2023/01/13 07:57:41;;;;;;;3.20;1.30;;;8.90;98.80;;;;;;5116554;28;20503;-60
2023/01/13 08:00:09;;;;;;;7.07;1.80;;;8.90;98.50;;;;;;5117015;28;20454;-60
2023/01/13 08:02:36;;;;;;;5.30;1.40;;;8.90;98.60;;;;;;5115962;28;20473;-60
2023/01/13 08:05:03;;;;;;;8.37;1.73;;;8.90;98.70;;;;;;5116328;28;20901;-60
2023/01/13 08:07:29;;;;;;;5.60;1.60;;;8.90;98.80;;;;;;5116545;28;20449;-60
2023/01/13 08:09:56;;;;;;;7.77;1.27;;;8.90;99.00;;;;;;5115791;28;20457;-60
2023/01/13 08:15:09;;;;;;;7.97;2.87;;;8.90;99.00;;;;;;5116590;28;20912;-60
2023/01/13 08:17:36;;;;;;;9.57;1.90;;;9.00;98.90;;;;;;5116184;28;20867;-60
2023/01/13 08:20:04;;;;;;;8.47;2.30;;;9.00;99.00;;;;;;5116149;28;20452;-60
2023/01/13 08:22:32;;;;;;;10.93;1.90;;;9.00;99.00;;;;;;5116048;28;20465;-60
2023/01/13 08:24:59;;;;;;;5.67;1.60;;;9.10;99.00;;;;;;5116670;28;20498;-60
2023/01/13 08:27:27;;;;;;;11.77;2.90;;;9.10;99.00;;;;;;5116543;28;20437;-60
2023/01/13 08:29:53;;;;;;;11.60;1.80;;;9.20;98.80;;;;;;5115827;28;20956;-60
2023/01/13 08:32:20;;;;;;;9.17;2.50;;;9.20;98.60;;;;;;5115806;28;20485;-60
2023/01/13 08:34:47;;;;;;;13.03;3.27;;;9.20;98.80;;;;;;5116165;28;20450;-60
2023/01/13 08:37:14;;;;;;;23.90;2.30;;;9.20;98.70;;;;;;5116517;28;20442;-60
2023/01/13 08:39:40;;;;;;;8.47;2.27;;;9.20;98.50;;;;;;5115541;28;20984;-60
2023/01/13 08:42:07;;;;;;;10.40;1.90;;;9.20;98.50;;;;;;5115718;28;20847;-61
2023/01/13 08:44:35;;;;;;;9.27;2.50;;;9.20;98.40;;;;;;5116121;28;20436;-60
2023/01/13 08:47:03;;;;;;;7.60;2.33;;;9.20;98.50;;;;;;5115973;28;20446;-60
2023/01/13 08:49:29;;;;;;;13.20;3.10;;;9.20;98.30;;;;;;5116077;28;20450;-60
2023/01/13 08:51:56;;;;;;;12.13;2.57;;;9.20;98.00;;;;;;5115044;28;20997;-60
2023/01/13 08:54:23;;;;;;;9.27;2.10;;;9.30;98.20;;;;;;5115528;28;20447;-60
2023/01/13 08:56:49;;;;;;;8.30;2.47;;;9.30;98.00;;;;;;5115526;28;20445;-60
2023/01/13 08:59:18;;;;;;;17.20;3.10;;;9.30;97.90;;;;;;5115310;28;20457;-60
2023/01/13 09:01:46;;;;;;;23.90;2.60;;;9.30;98.00;;;;;;5115219;28;20485;-60
2023/01/13 09:04:17;;;;;;;10.53;2.33;;;9.30;97.90;;;;;;5115367;28;20452;-60
2023/01/13 09:06:44;;;;;;;13.10;2.90;;;9.30;97.80;;;;;;5114655;28;20457;-60
2023/01/13 09:09:10;;;;;;;11.57;2.70;;;9.40;97.80;;;;;;5115389;28;20446;-60
2023/01/13 09:14:27;;;;;;;20.13;2.40;;;9.40;97.70;;;;;;5115035;28;20413;-60
2023/01/13 09:16:55;;;;;;;10.00;2.87;;;9.40;97.40;;;;;;5115109;28;20797;-60
2023/01/13 09:19:22;;;;;;;15.03;2.60;;;9.50;97.30;;;;;;5114425;28;20932;-60
2023/01/13 09:21:49;;;;;;;10.80;2.57;;;9.50;97.20;;;;;;5114154;28;20469;-60
2023/01/13 09:24:15;;;;;;;11.00;3.00;;;9.60;97.10;;;;;;5114624;28;20429;-60
2023/01/13 09:26:42;;;;;;;12.20;2.90;;;9.70;97.10;;;;;;5114928;28;20441;-60
2023/01/13 09:29:09;;;;;;;14.20;2.70;;;9.70;96.50;;;;;;5115143;28;20444;-60
2023/01/13 09:31:36;;;;;;;12.23;3.00;;;9.80;96.80;;;;;;5114621;28;20485;-60
2023/01/13 09:36:50;;;;;;;13.10;3.20;;;9.80;96.30;;;;;;5114755;28;20538;-60
2023/01/13 09:39:17;;;;;;;10.43;2.60;;;9.90;96.30;;;;;;5114568;28;20814;-61
2023/01/13 09:44:42;;;;;;;15.37;2.47;;;9.80;95.90;;;;;;5115445;28;20947;-60
2023/01/13 09:47:17;;;;;;;23.50;3.20;;;9.80;95.90;;;;;;5115025;28;20431;-60
2023/01/13 09:49:45;;;;;;;13.53;2.43;;;9.80;96.20;;;;;;5114810;28;20439;-60
2023/01/13 09:52:15;;;;;;;9.90;3.20;;;9.80;96.50;;;;;;5114762;28;20490;-60
2023/01/13 09:54:43;;;;;;;13.77;4.27;;;9.80;96.20;;;;;;5114804;28;20806;-60
2023/01/13 09:57:12;;;;;;;14.10;3.07;;;9.80;96.20;;;;;;5114754;28;20433;-60
2023/01/13 09:59:39;;;;;;;12.47;3.70;;;9.80;96.00;;;;;;5114702;28;20424;-60
2023/01/13 10:02:26;;;;;;;13.60;2.50;;;9.90;96.10;;;;;;5114613;28;20477;-60
2023/01/13 10:05:09;;;;;;;16.23;3.03;;;10.00;95.80;;;;;;5114235;28;20959;-60
2023/01/13 10:07:39;;;;;;;14.13;2.83;;;9.90;96.10;;;;;;5114694;28;20430;-60
2023/01/13 10:10:17;;;;;;;8.33;1.87;;;10.00;95.40;;;;;;5114781;28;20431;-60
2023/01/13 10:15:31;;;;;;;13.30;3.00;;;10.10;94.60;;;;;;5114612;28;20420;-60
2023/01/13 10:18:04;;;;;;;15.33;2.43;;;10.10;95.20;;;;;;5114468;28;20427;-60
2023/01/13 10:20:40;;;;;;;11.00;3.13;;;10.10;94.80;;;;;;5115396;28;20460;-60
2023/01/13 10:23:24;;;;;;;11.67;2.73;;;10.10;94.50;;;;;;5114343;28;20474;-60
2023/01/13 10:26:01;;;;;;;12.63;2.90;;;10.10;94.60;;;;;;5113997;28;20433;-60
2023/01/13 10:28:28;;;;;;;12.47;2.87;;;10.20;94.50;;;;;;5114093;28;20435;-59
2023/01/13 10:30:55;;;;;;;15.87;3.43;;;10.20;94.10;;;;;;5114084;28;20426;-60
2023/01/13 10:33:26;;;;;;;12.73;3.20;;;10.30;94.30;;;;;;5114495;28;20490;-60
2023/01/13 10:36:03;;;;;;;18.27;4.20;;;10.30;94.30;;;;;;5118386;28;20490;-60
2023/01/13 10:38:36;;;;;;;16.33;3.37;;;10.20;94.30;;;;;;5117703;28;20532;-60
2023/01/13 10:41:05;;;;;;;14.67;2.93;;;10.20;94.00;;;;;;5118174;28;20469;-60
2023/01/13 10:43:32;;;;;;;17.77;3.63;;;10.20;94.20;;;;;;5118213;28;20438;-60
2023/01/13 10:46:03;;;;;;;13.50;3.17;;;10.30;94.10;;;;;;5118868;28;20430;-60
2023/01/13 10:48:39;;;;;;;13.80;2.93;;;10.40;94.40;;;;;;5119188;28;20429;-60
2023/01/13 10:51:25;;;;;;;16.57;3.37;;;10.40;93.70;;;;;;5118933;28;20440;-60
2023/01/13 10:53:57;;;;;;;23.20;2.67;;;10.50;94.40;;;;;;5119512;28;20427;-60
2023/01/13 10:56:26;;;;;;;16.03;3.20;;;10.50;93.50;;;;;;5119931;28;20807;-60
2023/01/13 10:59:08;;;;;;;17.30;2.87;;;10.50;93.40;;;;;;5118863;28;20429;-60
2023/01/13 11:01:35;;;;;;;13.93;2.97;;;10.60;93.60;;;;;;5117832;28;21003;-60
2023/01/13 11:04:24;;;;;;;12.60;2.20;;;10.60;93.20;;;;;;5118570;28;20482;-60
2023/01/13 11:06:52;;;;;;;15.83;2.87;;;10.60;93.80;;;;;;5118831;28;20460;-59
2023/01/13 11:09:21;;;;;;;16.57;3.03;;;10.60;93.20;;;;;;5118660;28;20425;-60
2023/01/13 11:11:54;;;;;;;12.10;2.97;;;10.60;93.40;;;;;;5117598;28;20474;-60
2023/01/13 11:14:35;;;;;;;12.80;2.73;;;10.60;92.20;;;;;;5117448;28;20431;-60
2023/01/13 11:17:08;;;;;;;14.90;3.20;;;10.50;91.90;;;;;;5117687;28;20847;-59
2023/01/13 11:19:40;;;;;;;11.63;2.70;;;10.50;92.20;;;;;;5117334;28;20487;-60
2023/01/13 11:22:14;;;;;;;18.47;2.70;;;10.50;91.80;;;;;;5116984;28;20458;-60
2023/01/13 11:24:45;;;;;;;13.13;4.07;;;10.50;91.90;;;;;;5117149;28;20475;-60
2023/01/13 11:27:17;;;;;;;13.13;3.10;;;10.50;91.70;;;;;;5116895;28;20425;-60
2023/01/13 11:29:58;;;;;;;13.10;3.03;;;10.50;91.90;;;;;;5116845;28;20427;-60
2023/01/13 11:32:25;;;;;;;9.73;2.10;;;10.60;92.30;;;;;;5117273;28;20535;-60
2023/01/13 11:34:57;;;;;;;16.53;3.50;;;10.60;91.50;;;;;;5116777;28;20438;-60
2023/01/13 11:37:27;;;;;;;16.67;4.57;;;10.50;91.40;;;;;;5116697;28;20435;-60
2023/01/13 11:40:00;;;;;;;10.23;2.73;;;10.50;91.30;;;;;;5116690;28;20467;-60
2023/01/13 11:42:32;;;;;;;13.90;2.83;;;10.40;91.30;;;;;;5116511;28;21044;-60
2023/01/13 11:45:10;;;;;;;17.27;2.67;;;10.40;91.50;;;;;;5115364;28;20910;-60
2023/01/13 11:47:38;;;;;;;21.67;3.50;;;10.40;91.60;;;;;;5116533;28;20438;-60
2023/01/13 11:50:15;;;;;;;13.50;3.00;;;10.50;91.20;;;;;;5116226;28;20922;-60
2023/01/13 11:53:09;;;;;;;13.33;2.20;;;10.60;91.20;;;;;;5116429;28;20492;-60
2023/01/13 11:55:46;;;;;;;18.93;2.90;;;10.50;90.90;;;;;;5115144;28;20433;-59
2023/01/13 11:58:43;;;;;;;13.23;3.03;;;10.50;91.00;;;;;;5116346;28;20433;-60
2023/01/13 12:01:22;;;;;;;6.40;1.80;;;10.50;91.60;;;;;;5114969;28;20461;-60
2023/01/13 12:03:56;;;;;;;11.37;2.40;;;10.40;91.80;;;;;;5116012;28;20933;-60
2023/01/13 12:06:33;;;;;;;10.20;2.43;;;10.40;92.10;;;;;;5116464;28;20429;-60
2023/01/13 12:09:31;;;;;;;16.83;3.07;;;10.40;92.90;;;;;;5116779;28;20433;-60
2023/01/13 12:12:26;;;;;;;7.47;2.10;;;10.40;92.90;;;;;;5116229;28;20474;-60
2023/01/13 12:15:07;;;;;;;13.80;3.00;;;10.30;93.80;;;;;;5116357;28;20452;-60
2023/01/13 12:17:41;;;;;;;13.17;3.60;;;10.30;94.60;;;;;;5116075;28;20926;-60
2023/01/13 12:20:22;;;;;;;10.43;2.83;;;10.30;94.00;;;;;;5115794;28;20937;-60
2023/01/13 12:22:53;;;;;;;10.40;2.00;;;10.40;94.00;;;;;;5115903;28;20470;-61
2023/01/13 12:25:31;;;;;;;5.27;1.67;;;10.50;93.90;;;;;;5121379;27;20445;-60
2023/01/13 12:28:03;;;;;;;14.10;2.30;;;10.40;94.20;;;;;;5136906;27;20921;-60
2023/01/13 12:30:44;;;;;;;13.60;2.73;;;10.20;95.70;;;;;;5137038;27;20429;-60
2023/01/13 12:33:23;;;;;;;9.70;2.00;;;10.10;96.80;;;;;;5136914;27;20496;-60
2023/01/13 12:35:58;;;;;;;11.43;2.20;;;10.00;97.90;;;;;;5137503;27;20448;-60
2023/01/13 12:38:34;;;;;;;13.10;3.13;;;9.90;99.50;;;;;;5136176;27;20441;-59
2023/01/13 12:41:12;;;;;;;12.53;2.77;;;9.70;99.90;;;;;;5135397;27;20978;-59
2023/01/13 12:46:45;;;;;;;7.10;2.70;;;9.30;99.90;;;;;;5135992;27;20450;-59
2023/01/13 12:49:21;;;;;;;12.23;1.90;;;9.00;99.90;;;;;;5136118;27;20433;-60
2023/01/13 12:52:21;;;;;;;15.47;2.77;;;8.90;99.90;;;;;;5136637;27;20471;-60
2023/01/13 12:55:13;;;;;;;7.93;2.33;;;8.90;99.90;;;;;;5135878;27;20449;-60
2023/01/13 12:57:59;;;;;;;10.50;2.70;;;9.10;99.90;;;;;;5135902;27;20426;-60
2023/01/13 13:00:36;;;;;;;12.60;2.73;;;9.20;99.90;;;;;;5135855;27;20434;-60
2023/01/13 13:03:33;;;;;;;16.70;2.70;;;9.40;99.90;;;;;;5136817;27;20465;-60
2023/01/13 13:06:09;;;;;;;10.73;3.53;;;9.40;99.90;;;;;;5135896;27;20438;-60
2023/01/13 13:09:00;;;;;;;9.60;2.80;;;9.40;99.90;;;;;;5135356;27;20817;-60
2023/01/13 13:15:01;;;;;;;14.87;4.13;;;9.40;99.90;;;;;;5135190;27;20956;-60
2023/01/13 13:18:01;;;;;;;8.20;2.07;;;9.40;99.90;;;;;;5130002;27;20510;-60
2023/01/13 13:20:54;;;;;;;5.43;2.30;;;9.50;99.90;;;;;;5069945;28;20991;-60
2023/01/13 13:23:38;;;;;;;9.53;2.50;;;9.40;99.90;;;;;;5114874;28;20826;-60
2023/01/13 13:26:15;;;;;;;16.83;2.80;;;9.50;99.90;;;;;;5114807;28;20466;-60
2023/01/13 13:28:50;;;;;;;11.13;2.60;;;9.50;99.90;;;;;;5114524;28;20458;-60
2023/01/13 13:31:32;;;;;;;16.70;2.50;;;9.60;99.90;;;;;;5114096;28;20921;-60
2023/01/13 13:34:21;;;;;;;9.80;2.10;;;9.70;99.90;;;;;;5114455;28;20872;-59
2023/01/13 13:37:05;;;;;;;12.60;3.03;;;9.80;99.90;;;;;;5114420;28;20431;-59
2023/01/13 13:48:14;;;;;;;8.80;2.10;;;10.00;99.90;;;;;;5114464;28;20916;-59
2023/01/13 13:50:47;;;;;;;6.43;1.77;;;9.90;99.90;;;;;;5113892;28;20449;-59
2023/01/13 13:53:14;;;;;;;10.67;2.30;;;10.00;99.90;;;;;;5114003;28;20483;-59
2023/01/13 13:55:54;;;;;;;11.73;2.50;;;9.90;99.90;;;;;;5113758;28;20909;-59
2023/01/13 13:58:21;;;;;;;7.47;2.17;;;9.90;99.90;;;;;;5113827;28;20940;-59
2023/01/13 14:00:49;;;;;;;10.27;2.30;;;9.90;99.90;;;;;;5114015;28;20443;-59
2023/01/13 14:03:25;;;;;;;19.83;2.50;;;10.00;99.90;;;;;;5113928;28;20484;-59
2023/01/13 14:05:57;;;;;;;15.33;3.37;;;10.00;99.90;;;;;;5113713;28;20900;-59
2023/01/13 14:08:24;;;;;;;13.83;3.47;;;9.90;99.90;;;;;;5113391;28;20479;-59
2023/01/13 14:10:51;;;;;;;13.17;2.70;;;9.80;99.90;;;;;;5113954;28;20450;-59